createdAt,value
2022-08-26T00:01:08.002Z,56.80
2022-08-26T00:03:47.576Z,56.90
2022-08-26T00:06:17.422Z,57.00
2022-08-26T00:08:49.094Z,57.10
2022-08-26T00:11:26.549Z,57.00
2022-08-26T00:14:00.632Z,57.20
2022-08-26T00:16:29.940Z,57.20
2022-08-26T00:18:58.378Z,57.40
2022-08-26T00:21:30.405Z,57.50
2022-08-26T00:23:58.404Z,57.50
2022-08-26T00:26:28.518Z,57.30
2022-08-26T00:28:57.400Z,57.50
2022-08-26T00:31:25.521Z,57.50
2022-08-26T00:33:53.620Z,58.00
2022-08-26T00:36:21.825Z,58.10
2022-08-26T00:38:51.721Z,58.30
2022-08-26T00:41:20.364Z,58.50
2022-08-26T00:43:48.414Z,58.50
2022-08-26T00:46:23.109Z,58.50
2022-08-26T00:48:53.776Z,58.60
2022-08-26T00:51:23.710Z,58.80
2022-08-26T00:53:53.887Z,58.90
2022-08-26T00:56:28.316Z,58.90
2022-08-26T00:58:57.555Z,58.80
2022-08-26T01:01:32.986Z,58.70
2022-08-26T01:04:03.283Z,58.50
2022-08-26T01:06:33.292Z,58.60
2022-08-26T01:09:02.928Z,58.70
2022-08-26T01:11:31.993Z,58.70
2022-08-26T01:14:04.619Z,58.90
2022-08-26T01:16:35.614Z,59.00
2022-08-26T01:19:11.110Z,58.90
2022-08-26T01:21:45.072Z,58.90
2022-08-26T01:24:16.772Z,58.90
2022-08-26T01:26:45.375Z,58.90
2022-08-26T01:29:15.895Z,58.80
2022-08-26T01:31:46.157Z,58.90
2022-08-26T01:34:18.140Z,58.90
2022-08-26T01:36:51.350Z,58.90
2022-08-26T01:39:21.412Z,58.90
2022-08-26T01:41:53.654Z,59.10
2022-08-26T01:44:27.147Z,59.10
2022-08-26T01:46:58.876Z,59.10
2022-08-26T01:49:27.894Z,59.00
2022-08-26T01:52:00.686Z,59.00
2022-08-26T01:54:30.026Z,59.10
2022-08-26T01:56:58.434Z,59.30
2022-08-26T01:59:29.984Z,59.50
2022-08-26T02:01:58.272Z,59.70
2022-08-26T02:04:42.089Z,60.00
2022-08-26T02:07:12.133Z,60.20
2022-08-26T02:09:43.182Z,60.20
2022-08-26T02:12:13.328Z,60.10
2022-08-26T02:14:52.968Z,60.00
2022-08-26T02:17:21.795Z,60.00
2022-08-26T02:19:56.871Z,60.00
2022-08-26T02:22:27.297Z,60.00
2022-08-26T02:24:57.896Z,60.10
2022-08-26T02:27:28.252Z,60.10
2022-08-26T02:30:11.828Z,60.20
2022-08-26T02:32:40.299Z,60.10
2022-08-26T02:35:10.014Z,60.10
2022-08-26T02:37:38.221Z,60.00
2022-08-26T02:40:16.245Z,60.10
2022-08-26T02:42:44.225Z,60.00
2022-08-26T02:45:12.956Z,60.10
2022-08-26T02:47:43.341Z,60.00
2022-08-26T02:50:11.439Z,60.10
2022-08-26T02:52:39.648Z,60.00
2022-08-26T02:55:08.410Z,60.10
2022-08-26T02:57:40.646Z,60.00
2022-08-26T03:00:10.022Z,60.00
2022-08-26T03:02:38.525Z,60.00
2022-08-26T03:05:10.098Z,60.10
2022-08-26T03:07:39.324Z,60.30
2022-08-26T03:10:08.954Z,60.50
2022-08-26T03:12:39.547Z,60.40
2022-08-26T03:15:16.430Z,60.40
2022-08-26T03:17:46.045Z,60.40
2022-08-26T03:20:15.451Z,60.50
2022-08-26T03:22:47.474Z,60.70
2022-08-26T03:25:17.346Z,60.80
2022-08-26T03:27:47.693Z,60.80
2022-08-26T03:30:39.491Z,60.70
2022-08-26T03:33:14.663Z,60.60
2022-08-26T03:35:50.774Z,60.60
2022-08-26T03:38:38.286Z,61.20
2022-08-26T03:41:12.476Z,60.60
2022-08-26T03:43:43.187Z,60.60
2022-08-26T03:46:13.766Z,60.60
2022-08-26T03:48:44.353Z,60.60
2022-08-26T03:51:14.777Z,60.80
2022-08-26T03:53:47.259Z,60.90
2022-08-26T03:56:16.318Z,61.00
2022-08-26T03:58:47.129Z,61.10
2022-08-26T04:01:17.534Z,61.20
2022-08-26T04:04:00.272Z,61.30
2022-08-26T04:06:29.785Z,61.20
2022-08-26T04:09:02.603Z,61.10
2022-08-26T04:11:34.693Z,61.00
2022-08-26T04:14:05.942Z,60.90
2022-08-26T04:16:34.191Z,60.90
2022-08-26T04:19:05.660Z,60.90
2022-08-26T04:21:33.623Z,60.90
2022-08-26T04:24:03.499Z,60.90
2022-08-26T04:26:43.867Z,60.90
2022-08-26T04:29:14.108Z,61.00
2022-08-26T04:31:46.337Z,61.00
2022-08-26T04:34:16.056Z,61.00
2022-08-26T04:36:45.133Z,61.00
2022-08-26T04:39:16.640Z,61.10
2022-08-26T04:41:47.550Z,61.10
2022-08-26T04:44:25.770Z,61.10
2022-08-26T04:46:54.372Z,61.70
2022-08-26T04:49:27.568Z,61.10
2022-08-26T04:52:00.208Z,61.20
2022-08-26T04:54:28.873Z,61.20
2022-08-26T04:56:57.102Z,61.20
2022-08-26T04:59:27.546Z,61.20
2022-08-26T05:01:59.448Z,61.10
2022-08-26T05:04:27.857Z,61.10
2022-08-26T05:07:02.298Z,61.10
2022-08-26T05:09:34.462Z,61.00
2022-08-26T05:12:02.638Z,61.00
2022-08-26T05:14:37.128Z,61.00
2022-08-26T05:17:08.668Z,61.10
2022-08-26T05:19:44.546Z,61.10
2022-08-26T05:22:22.910Z,61.10
2022-08-26T05:24:51.297Z,61.20
2022-08-26T05:27:19.570Z,61.10
2022-08-26T05:29:54.538Z,61.00
2022-08-26T05:32:34.008Z,61.00
2022-08-26T05:35:02.087Z,61.00
2022-08-26T05:37:30.688Z,60.90
2022-08-26T05:39:59.114Z,60.90
2022-08-26T05:42:30.695Z,60.90
2022-08-26T05:45:00.516Z,60.80
2022-08-26T05:47:33.645Z,60.90
2022-08-26T05:50:05.526Z,60.80
2022-08-26T05:52:41.484Z,60.70
2022-08-26T05:55:09.784Z,60.70
2022-08-26T05:57:42.213Z,60.60
2022-08-26T06:00:16.291Z,60.60
2022-08-26T06:02:48.380Z,60.40
2022-08-26T06:05:16.574Z,60.20
2022-08-26T06:08:02.211Z,60.50
2022-08-26T06:10:35.106Z,60.60
2022-08-26T06:13:12.418Z,60.70
2022-08-26T06:18:52.012Z,60.90
2022-08-26T06:21:22.308Z,60.90
2022-08-26T06:24:08.356Z,61.00
2022-08-26T06:26:50.297Z,60.90
2022-08-26T06:29:36.479Z,60.60
2022-08-26T06:32:07.151Z,60.50
2022-08-26T06:34:59.563Z,60.20
2022-08-26T06:37:29.717Z,59.60
2022-08-26T06:39:57.819Z,58.80
2022-08-26T06:42:26.077Z,58.30
2022-08-26T06:44:57.841Z,58.10
2022-08-26T06:48:08.454Z,58.20
2022-08-26T06:50:39.221Z,58.20
2022-08-26T06:53:14.339Z,57.80
2022-08-26T06:55:46.223Z,57.10
2022-08-26T06:58:14.884Z,56.70
2022-08-26T08:48:56.834Z,46.90
2022-08-26T10:00:33.111Z,39.50
2022-08-26T10:03:02.728Z,40.10
2022-08-26T10:05:41.184Z,40.90
2022-08-26T10:08:24.738Z,39.70
2022-08-26T10:10:53.787Z,39.70
2022-08-26T10:13:25.330Z,39.70
2022-08-26T10:15:59.909Z,39.70
2022-08-26T10:18:34.664Z,39.30
2022-08-26T10:21:07.257Z,38.90
2022-08-26T10:26:14.712Z,39.30
2022-08-26T10:28:44.826Z,38.10
2022-08-26T10:31:20.235Z,38.00
2022-08-26T10:33:52.514Z,37.90
2022-08-26T10:37:05.121Z,37.50
2022-08-26T10:39:31.275Z,37.30
2022-08-26T10:42:01.394Z,37.00
2022-08-26T10:44:33.733Z,36.80
2022-08-26T10:47:07.298Z,36.40
2022-08-26T10:49:36.058Z,36.50
2022-08-26T10:52:12.331Z,35.60
2022-08-26T10:54:46.259Z,35.80
2022-08-26T10:57:16.445Z,35.60
2022-08-26T10:59:49.720Z,34.50
2022-08-26T11:02:25.273Z,33.70
2022-08-26T11:04:56.103Z,33.60
2022-08-26T11:07:35.398Z,33.70
2022-08-26T11:10:04.482Z,33.30
2022-08-26T11:12:49.649Z,32.70
2022-08-26T11:15:32.316Z,32.50
2022-08-26T11:18:03.620Z,32.40
2022-08-26T11:20:41.577Z,32.60
2022-08-26T11:23:28.778Z,32.30
2022-08-26T11:26:18.880Z,31.90
2022-08-26T11:29:01.779Z,31.80
2022-08-26T11:31:50.282Z,31.80
2022-08-26T11:34:39.518Z,31.80
2022-08-26T11:37:13.522Z,31.80
2022-08-26T11:39:54.794Z,31.60
2022-08-26T11:42:31.059Z,31.80
2022-08-26T11:45:01.376Z,31.80
2022-08-26T11:47:32.348Z,31.90
2022-08-26T11:50:08.441Z,31.50
2022-08-26T11:52:37.735Z,31.10
2022-08-26T11:55:07.277Z,31.30
2022-08-26T11:57:36.404Z,31.50
2022-08-26T12:00:07.273Z,31.20
2022-08-26T12:02:36.629Z,30.80
2022-08-26T12:05:04.731Z,30.20
2022-08-26T12:07:32.863Z,30.40
2022-08-26T12:10:06.211Z,30.60
2022-08-26T12:12:36.038Z,30.70
2022-08-26T12:15:10.066Z,31.20
2022-08-26T12:17:38.659Z,31.70
2022-08-26T12:20:07.335Z,32.00
2022-08-26T12:22:36.085Z,32.50
2022-08-26T12:25:06.909Z,32.60
2022-08-26T12:27:36.160Z,32.70
2022-08-26T12:30:08.474Z,32.60
2022-08-26T12:32:36.669Z,32.50
2022-08-26T12:37:40.943Z,32.60
2022-08-26T12:40:32.938Z,32.70
2022-08-26T12:43:01.973Z,32.70
2022-08-26T12:45:31.259Z,32.80
2022-08-26T12:48:00.126Z,32.90
2022-08-26T12:50:29.308Z,32.90
2022-08-26T12:52:59.315Z,33.40
2022-08-26T12:55:35.493Z,34.30
2022-08-26T12:58:27.370Z,35.00
2022-08-26T13:00:57.279Z,35.60
2022-08-26T13:03:29.300Z,36.10
2022-08-26T13:06:09.393Z,36.40
2022-08-26T13:08:44.547Z,36.70
2022-08-26T13:11:13.930Z,36.90
2022-08-26T13:13:41.731Z,36.90
2022-08-26T13:16:10.988Z,36.80
2022-08-26T13:18:39.086Z,36.90
2022-08-26T13:21:09.704Z,37.00
2022-08-26T13:23:41.909Z,37.20
2022-08-26T13:26:10.325Z,37.40
2022-08-26T13:28:38.123Z,37.70
2022-08-26T13:31:06.219Z,37.90
2022-08-26T13:33:35.715Z,37.90
2022-08-26T13:36:04.206Z,38.10
2022-08-26T13:38:33.793Z,38.20
2022-08-26T13:41:02.672Z,38.30
2022-08-26T13:43:30.886Z,38.40
2022-08-26T13:45:58.870Z,38.30
2022-08-26T13:48:26.684Z,38.40
2022-08-26T13:50:55.905Z,38.40
2022-08-26T13:53:24.440Z,38.30
2022-08-26T13:55:52.473Z,38.30
2022-08-26T13:58:20.635Z,38.20
2022-08-26T14:00:48.671Z,38.00
2022-08-26T14:03:16.541Z,37.60
2022-08-26T14:05:44.376Z,37.40
2022-08-26T14:08:13.559Z,36.80
2022-08-26T14:10:41.838Z,36.60
2022-08-26T14:13:09.714Z,36.60
2022-08-26T14:15:38.363Z,36.70
2022-08-26T14:18:07.820Z,36.70
2022-08-26T14:20:37.254Z,36.80
2022-08-26T14:23:13.578Z,36.80
2022-08-26T14:25:43.684Z,36.70
2022-08-26T14:28:12.073Z,36.50
2022-08-26T14:30:41.095Z,36.50
2022-08-26T14:33:11.352Z,36.30
2022-08-26T14:35:39.257Z,36.10
2022-08-26T14:38:07.186Z,36.00
2022-08-26T14:40:37.699Z,35.80
2022-08-26T14:43:07.577Z,35.80
2022-08-26T14:45:37.569Z,36.20
2022-08-26T14:48:05.541Z,36.30
2022-08-26T14:50:33.515Z,37.20
2022-08-26T14:53:18.837Z,36.90
2022-08-26T14:55:46.913Z,37.40
2022-08-26T14:58:16.067Z,37.70
2022-08-26T15:00:44.380Z,37.70
2022-08-26T15:03:12.549Z,37.50
2022-08-26T15:05:47.982Z,37.20
2022-08-26T15:08:16.880Z,37.00
2022-08-26T15:10:44.737Z,37.40
2022-08-26T15:13:12.566Z,37.80
2022-08-26T15:15:42.064Z,37.80
2022-08-26T15:18:10.150Z,37.60
2022-08-26T15:20:38.252Z,37.70
2022-08-26T15:23:07.380Z,38.10
2022-08-26T15:25:35.486Z,38.30
2022-08-26T15:28:03.501Z,38.60
2022-08-26T15:30:31.776Z,38.90
2022-08-26T15:33:01.019Z,38.90
2022-08-26T15:35:29.207Z,39.00
2022-08-26T15:38:00.858Z,39.20
2022-08-26T15:40:28.853Z,39.20
2022-08-26T15:43:11.343Z,39.60
2022-08-26T15:45:44.632Z,39.60
2022-08-26T15:48:13.926Z,39.80
2022-08-26T15:50:50.005Z,39.90
2022-08-26T15:53:17.838Z,40.30
2022-08-26T15:55:45.768Z,40.20
2022-08-26T15:58:14.091Z,40.30
2022-08-26T16:00:44.195Z,40.50
2022-08-26T16:03:13.344Z,40.40
2022-08-26T16:05:43.521Z,40.60
2022-08-26T16:08:12.184Z,40.80
2022-08-26T16:10:55.202Z,41.10
2022-08-26T16:13:23.522Z,41.30
2022-08-26T16:15:52.450Z,41.40
2022-08-26T16:18:23.620Z,41.70
2022-08-26T16:20:57.409Z,41.90
2022-08-26T16:23:40.478Z,42.30
2022-08-26T16:26:11.030Z,42.40
2022-08-26T16:28:39.424Z,42.80
2022-08-26T16:31:07.510Z,43.10
2022-08-26T16:33:37.693Z,43.40
2022-08-26T16:36:05.881Z,43.70
2022-08-26T16:38:34.162Z,43.90
2022-08-26T16:41:02.637Z,44.20
2022-08-26T16:43:30.483Z,44.50
2022-08-26T16:45:58.707Z,44.80
2022-08-26T16:48:26.765Z,45.00
2022-08-26T16:50:56.084Z,45.00
2022-08-26T16:53:24.217Z,45.20
2022-08-26T16:55:52.365Z,45.20
2022-08-26T16:58:22.332Z,45.40
2022-08-26T17:00:50.692Z,45.60
2022-08-26T17:03:18.642Z,45.70
2022-08-26T17:05:46.548Z,45.70
2022-08-26T17:08:24.385Z,45.90
2022-08-26T17:10:56.771Z,45.90
2022-08-26T17:13:35.363Z,46.10
2022-08-26T17:16:05.140Z,46.30
2022-08-26T17:18:33.368Z,46.50
2022-08-26T17:21:01.765Z,46.70
2022-08-26T17:23:30.952Z,46.90
2022-08-26T17:25:58.738Z,47.20
2022-08-26T17:28:26.538Z,47.40
2022-08-26T17:30:56.275Z,47.90
2022-08-26T17:33:24.811Z,47.90
2022-08-26T17:35:53.603Z,47.90
2022-08-26T17:38:21.831Z,48.20
2022-08-26T17:40:51.307Z,48.40
2022-08-26T17:43:27.145Z,48.80
2022-08-26T17:45:58.929Z,49.00
2022-08-26T17:48:37.508Z,49.30
2022-08-26T17:51:15.618Z,49.30
2022-08-26T17:53:44.047Z,49.50
2022-08-26T17:56:14.909Z,50.30
2022-08-26T17:58:48.216Z,49.50
2022-08-26T18:01:19.652Z,49.60
2022-08-26T18:03:49.014Z,49.70
2022-08-26T18:06:16.915Z,50.00
2022-08-26T18:08:45.061Z,50.00
2022-08-26T18:11:15.522Z,50.10
2022-08-26T18:13:46.940Z,50.30
2022-08-26T18:16:16.237Z,50.40
2022-08-26T18:18:44.723Z,50.50
2022-08-26T18:21:15.542Z,50.30
2022-08-26T18:23:43.799Z,50.50
2022-08-26T18:26:18.152Z,50.70
2022-08-26T18:28:46.422Z,50.70
2022-08-26T18:31:15.307Z,51.00
2022-08-26T18:33:43.912Z,51.10
2022-08-26T18:36:19.099Z,51.30
2022-08-26T18:38:47.541Z,51.40
2022-08-26T18:41:21.542Z,51.50
2022-08-26T18:43:50.499Z,51.40
2022-08-26T18:46:19.053Z,51.40
2022-08-26T18:48:50.823Z,51.30
2022-08-26T18:51:19.733Z,51.20
2022-08-26T18:53:47.592Z,51.30
2022-08-26T18:56:18.150Z,51.30
2022-08-26T18:58:48.185Z,51.40
2022-08-26T19:01:16.730Z,51.40
2022-08-26T19:03:45.250Z,51.50
2022-08-26T19:06:14.448Z,51.60
2022-08-26T19:08:44.536Z,51.80
2022-08-26T19:11:12.875Z,51.80
2022-08-26T19:13:42.284Z,51.70
2022-08-26T19:16:17.234Z,51.80
2022-08-26T19:18:45.519Z,52.00
2022-08-26T19:21:13.474Z,52.00
2022-08-26T19:23:41.710Z,52.20
2022-08-26T19:26:10.387Z,52.30
2022-08-26T19:28:40.788Z,52.30
2022-08-26T19:31:10.498Z,52.40
2022-08-26T19:33:43.015Z,52.40
2022-08-26T19:36:15.034Z,52.50
2022-08-26T19:38:43.370Z,52.50
2022-08-26T19:41:12.296Z,52.70
2022-08-26T19:43:40.362Z,52.90
2022-08-26T19:46:19.578Z,53.00
2022-08-26T19:48:51.787Z,53.10
2022-08-26T19:51:26.990Z,53.10
2022-08-26T19:53:58.745Z,53.30
2022-08-26T19:56:28.059Z,53.50
2022-08-26T19:58:59.797Z,53.50
2022-08-26T20:01:27.766Z,53.60
2022-08-26T20:03:57.186Z,53.90
2022-08-26T20:06:25.133Z,54.00
2022-08-26T20:08:53.888Z,54.30
2022-08-26T20:11:24.492Z,54.60
2022-08-26T20:13:52.451Z,54.80
2022-08-26T20:16:20.417Z,54.90
2022-08-26T20:19:05.848Z,54.90
2022-08-26T20:21:38.062Z,54.90
2022-08-26T20:24:08.635Z,54.90
2022-08-26T20:26:37.508Z,54.90
2022-08-26T20:29:05.996Z,54.90
2022-08-26T20:31:35.083Z,54.90
2022-08-26T20:34:03.114Z,54.80
2022-08-26T20:36:31.281Z,54.80
2022-08-26T20:39:00.592Z,54.80
2022-08-26T20:41:28.576Z,54.90
2022-08-26T20:43:56.707Z,54.90
2022-08-26T20:46:25.400Z,54.90
2022-08-26T20:48:53.475Z,54.90
2022-08-26T20:51:22.889Z,55.10
2022-08-26T20:53:51.149Z,55.10
2022-08-26T20:56:23.719Z,55.00
2022-08-26T20:58:52.001Z,55.00
2022-08-26T21:01:21.518Z,54.90
2022-08-26T21:03:51.363Z,54.90
2022-08-26T21:06:19.339Z,54.80
2022-08-26T21:08:48.433Z,54.70
2022-08-26T21:11:17.298Z,54.60
2022-08-26T21:14:04.363Z,54.40
2022-08-26T21:16:36.690Z,54.30
2022-08-26T21:19:04.962Z,54.10
2022-08-26T21:21:33.038Z,54.10
2022-08-26T21:24:00.891Z,54.00
2022-08-26T21:26:28.764Z,53.90
2022-08-26T21:28:58.021Z,53.90
2022-08-26T21:31:26.279Z,53.70
2022-08-26T21:33:54.211Z,53.80
2022-08-26T21:36:25.406Z,53.80
2022-08-26T21:38:53.281Z,54.00
2022-08-26T21:41:22.114Z,54.20
2022-08-26T21:43:53.429Z,54.30
2022-08-26T21:46:23.920Z,54.40
2022-08-26T21:48:52.509Z,54.60
2022-08-26T21:51:21.818Z,54.60
2022-08-26T21:53:50.078Z,54.70
2022-08-26T21:56:18.756Z,54.80
2022-08-26T21:58:46.842Z,54.80
2022-08-26T22:01:19.745Z,54.90
2022-08-26T22:03:49.975Z,55.00
2022-08-26T22:06:21.548Z,55.10
2022-08-26T22:08:49.933Z,55.20
2022-08-26T22:11:18.657Z,55.40
2022-08-26T22:13:46.923Z,55.70
2022-08-26T22:16:14.891Z,55.80
2022-08-26T22:18:43.862Z,55.80
2022-08-26T22:21:15.218Z,55.90
2022-08-26T22:23:43.379Z,56.00
2022-08-26T22:26:12.514Z,56.20
2022-08-26T22:28:40.360Z,56.30
2022-08-26T22:31:08.630Z,56.40
2022-08-26T22:33:36.465Z,56.50
2022-08-26T22:36:04.792Z,56.60
2022-08-26T22:38:34.539Z,56.70
2022-08-26T22:41:06.544Z,56.90
2022-08-26T22:43:37.165Z,57.10
2022-08-26T22:46:05.119Z,57.40
2022-08-26T22:48:33.243Z,57.50
2022-08-26T22:51:01.087Z,57.70
2022-08-26T22:53:29.006Z,57.70
2022-08-26T22:56:02.113Z,57.80
2022-08-26T22:58:31.209Z,57.70
2022-08-26T23:00:59.557Z,57.70
2022-08-26T23:03:27.698Z,57.80
2022-08-26T23:05:56.422Z,57.80
2022-08-26T23:08:24.977Z,57.80
2022-08-26T23:10:53.069Z,57.90
2022-08-26T23:13:22.327Z,57.80
2022-08-26T23:15:50.175Z,57.70
2022-08-26T23:18:18.017Z,58.40
2022-08-26T23:20:46.904Z,57.70
2022-08-26T23:23:14.768Z,57.70
2022-08-26T23:25:42.647Z,57.80
2022-08-26T23:28:12.734Z,57.90
2022-08-26T23:30:41.978Z,57.80
2022-08-26T23:33:09.793Z,57.80
2022-08-26T23:35:36.640Z,57.70
2022-08-26T23:38:06.079Z,57.70
2022-08-26T23:40:37.202Z,57.80
2022-08-26T23:43:06.508Z,57.90
2022-08-26T23:45:34.907Z,58.00
2022-08-26T23:48:06.752Z,58.00
2022-08-26T23:50:52.725Z,58.00
2022-08-26T23:53:21.642Z,58.00
2022-08-26T23:55:50.557Z,58.00
2022-08-26T23:58:19.499Z,58.10
